Time;durP1;ratioP1;P1;durP2;ratioP2;P2;SDS_P1;SDS_P2;PMS_P1;PMS_P2;Temp;Humidity;BMP_temperature;BMP_pressure;BME280_temperature;BME280_humidity;BME280_pressure;Samples;Min_cycle;Max_cycle;Signal;HPM_P1;HPM_P2
2021/08/01 00:00:54;;;;;;;10.82;9.63;;;;;;;17.27;75.87;98248.46;2211446;80;20925;-79
2021/08/01 00:03:56;;;;;;;10.65;9.05;;;;;;;17.22;76.09;98251.66;2190114;81;20897;-79
2021/08/01 00:06:58;;;;;;;10.38;9.20;;;;;;;17.20;76.15;98246.42;2211319;81;21024;-80
2021/08/01 00:09:59;;;;;;;14.25;9.23;;;;;;;17.18;76.27;98261.42;2211777;81;20929;-80
2021/08/01 00:12:59;;;;;;;11.05;9.20;;;;;;;17.18;76.21;98256.14;2211412;80;21008;-79
2021/08/01 00:16:01;;;;;;;10.80;9.25;;;;;;;17.15;76.17;98263.68;2211643;81;20928;-81
2021/08/01 00:19:01;;;;;;;11.00;9.33;;;;;;;17.13;76.16;98262.84;2211746;81;20909;-80
2021/08/01 00:22:02;;;;;;;12.63;9.40;;;;;;;17.09;76.16;98261.19;2211831;80;20933;-80
2021/08/01 00:25:02;;;;;;;10.55;9.05;;;;;;;17.04;76.31;98260.42;2211730;80;21008;-80
2021/08/01 00:28:03;;;;;;;9.73;8.80;;;;;;;17.01;76.38;98256.55;2212147;80;20928;-82
2021/08/01 00:31:03;;;;;;;10.90;9.88;;;;;;;16.96;76.20;98256.23;2211868;80;20908;-80
2021/08/01 00:34:04;;;;;;;14.45;9.23;;;;;;;16.96;76.36;98259.73;2211831;80;20909;-80
2021/08/01 00:37:04;;;;;;;10.08;9.08;;;;;;;16.94;76.21;98252.77;2212049;80;20953;-79
2021/08/01 00:40:05;;;;;;;11.18;8.60;;;;;;;16.91;76.23;98251.06;2211499;81;20968;-79
2021/08/01 00:43:05;;;;;;;11.08;8.15;;;;;;;16.88;76.22;98259.05;2211832;80;21343;-79
2021/08/01 00:46:06;;;;;;;12.70;9.13;;;;;;;16.80;75.95;98259.22;2211898;80;20901;-80
2021/08/01 00:49:06;;;;;;;11.43;9.45;;;;;;;16.81;76.62;98257.45;2211728;80;21256;-81
2021/08/01 00:52:07;;;;;;;10.58;9.48;;;;;;;16.80;76.50;98262.30;2212001;80;20964;-80
2021/08/01 00:55:07;;;;;;;11.80;10.60;;;;;;;16.76;76.52;98263.27;2211786;80;20964;-80
2021/08/01 00:58:08;;;;;;;11.40;10.13;;;;;;;16.74;76.66;98267.71;2211922;81;20952;-80
2021/08/01 01:01:10;;;;;;;13.00;10.15;;;;;;;16.68;76.56;98266.08;2211738;81;20913;-80
2021/08/01 01:04:12;;;;;;;12.98;9.70;;;;;;;16.65;76.61;98275.37;2211428;81;21327;-83
2021/08/01 01:07:12;;;;;;;15.23;11.15;;;;;;;16.64;76.81;98270.97;2211815;81;21336;-80
2021/08/01 01:10:13;;;;;;;18.57;14.58;;;;;;;16.66;77.10;98267.02;2211452;81;21055;-79
2021/08/01 01:13:13;;;;;;;16.82;13.32;;;;;;;16.66;76.84;98274.91;2211706;81;20889;-80
2021/08/01 01:16:14;;;;;;;16.40;11.57;;;;;;;16.67;76.79;98279.28;2211771;81;21311;-81
2021/08/01 01:19:14;;;;;;;14.55;10.48;;;;;;;16.66;76.88;98282.82;2211615;81;21103;-80
2021/08/01 01:22:15;;;;;;;15.95;11.18;;;;;;;16.61;76.72;98275.43;2211790;81;20953;-80
2021/08/01 01:25:15;;;;;;;16.32;12.50;;;;;;;16.59;77.05;98269.33;2211665;81;20991;-80
2021/08/01 01:28:16;;;;;;;13.05;11.38;;;;;;;16.53;77.27;98272.51;2211990;81;20974;-81
2021/08/01 01:31:16;;;;;;;12.73;11.40;;;;;;;16.57;77.43;98269.36;2211735;81;21296;-80
2021/08/01 01:34:17;;;;;;;12.55;10.88;;;;;;;16.63;77.18;98261.77;2211920;81;21288;-80
2021/08/01 01:37:19;;;;;;;12.58;10.98;;;;;;;16.67;77.11;98256.89;2211865;81;20956;-80
2021/08/01 01:40:19;;;;;;;12.63;11.30;;;;;;;16.66;76.83;98260.42;2211689;80;21007;-80
2021/08/01 01:43:20;;;;;;;14.07;11.50;;;;;;;16.60;76.88;98271.93;2211683;81;20983;-80
2021/08/01 01:46:20;;;;;;;16.07;11.57;;;;;;;16.48;76.72;98266.47;2211750;81;20916;-80
2021/08/01 01:49:21;;;;;;;13.05;10.90;;;;;;;16.39;76.62;98258.73;2211656;81;20917;-80
2021/08/01 01:52:21;;;;;;;13.32;11.43;;;;;;;16.39;76.62;98258.73;2211604;81;20987;-80
2021/08/01 01:55:23;;;;;;;13.90;10.30;;;;;;;16.31;76.78;98264.60;2211613;81;20980;-81
2021/08/01 01:58:23;;;;;;;18.98;16.30;;;;;;;16.23;76.70;98255.98;2211415;81;20949;-82
2021/08/01 02:01:24;;;;;;;18.62;14.65;;;;;;;16.17;77.07;98262.24;2211779;81;20948;-81
2021/08/01 02:04:24;;;;;;;12.70;11.00;;;;;;;16.18;76.98;98261.80;2211699;81;21340;-81
2021/08/01 02:07:25;;;;;;;12.47;10.43;;;;;;;16.17;77.00;98257.42;2211755;81;20889;-80
2021/08/01 02:10:26;;;;;;;11.97;10.58;;;;;;;16.19;77.02;98257.81;2211560;81;21316;-80
2021/08/01 02:13:26;;;;;;;13.32;10.75;;;;;;;16.15;76.67;98252.64;2211718;81;20956;-80
2021/08/01 02:16:27;;;;;;;11.35;10.15;;;;;;;16.04;76.62;98250.22;2211559;81;20968;-80
2021/08/01 02:19:27;;;;;;;11.97;10.75;;;;;;;15.98;76.65;98250.34;2211625;81;20889;-80
2021/08/01 02:22:28;;;;;;;12.95;10.95;;;;;;;15.90;76.83;98245.22;2211683;81;20968;-80
2021/08/01 02:25:28;;;;;;;12.95;11.53;;;;;;;15.88;76.82;98256.22;2211782;81;20953;-80
2021/08/01 02:28:29;;;;;;;15.23;11.97;;;;;;;15.83;76.89;98260.70;2211752;81;21268;-80
2021/08/01 02:31:30;;;;;;;14.05;11.25;;;;;;;15.79;77.21;98256.39;2211844;81;20988;-80
2021/08/01 02:34:30;;;;;;;13.90;11.50;;;;;;;15.72;77.00;98240.75;2211762;81;20971;-80
2021/08/01 02:37:31;;;;;;;13.93;11.03;;;;;;;15.72;77.00;98240.75;2211877;81;20963;-80
2021/08/01 02:40:31;;;;;;;14.00;11.40;;;;;;;15.76;77.50;98247.24;2211403;80;21011;-80
2021/08/01 02:43:32;;;;;;;12.63;11.20;;;;;;;15.80;77.35;98248.05;2211704;81;20952;-80
2021/08/01 02:46:32;;;;;;;13.45;11.08;;;;;;;15.81;77.14;98245.84;2211659;81;20959;-80
2021/08/01 02:49:33;;;;;;;12.85;11.05;;;;;;;15.76;77.09;98247.24;2211703;81;20936;-80
2021/08/01 02:52:33;;;;;;;11.75;10.55;;;;;;;15.69;76.96;98245.62;2211713;81;21319;-80
2021/08/01 02:55:34;;;;;;;12.63;11.33;;;;;;;15.62;76.91;98246.63;2211690;81;21327;-80
2021/08/01 02:58:34;;;;;;;12.07;10.80;;;;;;;15.60;76.96;98240.48;2211748;81;20893;-80
2021/08/01 03:01:35;;;;;;;14.53;11.53;;;;;;;15.51;77.17;98244.12;2211801;81;20897;-80
2021/08/01 03:04:39;;;;;;;13.85;11.00;;;;;;;15.51;77.17;98244.12;2211629;81;20924;-80
2021/08/01 03:07:37;;;;;;;13.90;11.30;;;;;;;15.47;77.12;98250.77;2211531;80;21041;-80
2021/08/01 03:10:38;;;;;;;17.90;10.63;;;;;;;15.44;77.24;98248.19;2211721;81;20957;-80
2021/08/01 03:13:38;;;;;;;33.15;22.67;;;;;;;15.41;77.21;98245.17;2211893;81;20980;-80
2021/08/01 03:16:39;;;;;;;13.95;11.88;;;;;;;15.41;77.19;98254.82;2211746;81;20933;-79
2021/08/01 03:19:39;;;;;;;13.38;11.48;;;;;;;15.36;77.06;98254.03;2211489;81;20956;-79
2021/08/01 03:22:40;;;;;;;15.95;13.10;;;;;;;15.32;77.07;98259.79;2211986;81;21344;-81
2021/08/01 03:25:41;;;;;;;14.07;11.18;;;;;;;15.27;77.10;98256.36;2211765;81;21003;-80
2021/08/01 03:28:41;;;;;;;12.15;10.90;;;;;;;15.26;77.22;98260.75;2211953;81;20925;-80
2021/08/01 03:31:42;;;;;;;11.97;10.50;;;;;;;15.26;77.09;98263.38;2211959;81;20952;-81
2021/08/01 03:34:42;;;;;;;11.57;10.38;;;;;;;15.28;77.15;98266.86;2211811;81;20960;-81
2021/08/01 03:37:43;;;;;;;12.55;10.75;;;;;;;15.30;76.87;98263.75;2212012;81;21306;-80
2021/08/01 03:40:43;;;;;;;12.30;11.08;;;;;;;15.32;76.82;98259.79;2214373;80;20980;-80
2021/08/01 03:43:44;;;;;;;13.40;10.63;;;;;;;15.34;76.83;98250.56;2222009;80;20924;-81
2021/08/01 03:46:44;;;;;;;13.08;11.18;;;;;;;15.38;76.90;98253.11;2221909;80;20893;-78
2021/08/01 03:49:45;;;;;;;13.48;10.63;;;;;;;15.45;76.94;98253.88;2221639;80;20912;-78
2021/08/01 03:52:45;;;;;;;13.72;11.12;;;;;;;15.54;76.79;98249.32;2221897;80;21419;-78
2021/08/01 03:55:46;;;;;;;12.93;11.00;;;;;;;15.68;76.71;98246.96;2221708;80;21019;-78
2021/08/01 03:58:46;;;;;;;11.40;10.20;;;;;;;15.75;76.44;98247.27;2221693;80;20933;-78
2021/08/01 04:01:47;;;;;;;10.72;9.73;;;;;;;15.77;76.35;98252.92;2221761;80;20940;-78
2021/08/01 04:04:47;;;;;;;13.40;10.40;;;;;;;15.80;76.28;98264.71;2221609;80;20936;-79
2021/08/01 04:07:48;;;;;;;10.98;9.90;;;;;;;15.85;76.16;98269.44;2221883;80;21316;-78
2021/08/01 04:10:48;;;;;;;14.10;9.93;;;;;;;15.89;76.15;98261.91;2221952;80;20959;-78
2021/08/01 04:13:49;;;;;;;11.78;9.70;;;;;;;15.96;76.07;98258.71;2221781;80;20924;-78
2021/08/01 04:16:49;;;;;;;12.93;10.23;;;;;;;16.01;76.07;98248.96;2221738;80;20919;-78
2021/08/01 04:19:50;;;;;;;11.60;10.40;;;;;;;16.13;76.12;98242.14;2221795;80;20900;-77
2021/08/01 04:22:50;;;;;;;12.20;9.65;;;;;;;16.24;76.00;98238.84;2221847;80;20956;-79
2021/08/01 04:25:51;;;;;;;12.85;9.50;;;;;;;16.29;75.75;98232.61;2221653;80;20947;-79
2021/08/01 04:28:51;;;;;;;13.32;10.78;;;;;;;16.34;75.69;98228.11;2222046;80;20931;-79
2021/08/01 04:31:52;;;;;;;10.80;9.70;;;;;;;16.41;75.66;98221.81;2221870;80;20952;-78
2021/08/01 04:34:52;;;;;;;16.23;11.15;;;;;;;16.54;75.64;98218.92;2221801;80;20912;-78
2021/08/01 04:37:53;;;;;;;14.55;10.58;;;;;;;16.76;75.76;98226.38;2221960;80;20922;-78
2021/08/01 04:40:54;;;;;;;13.72;10.78;;;;;;;16.99;75.42;98237.70;2219178;80;20972;-79
2021/08/01 04:43:54;;;;;;;15.05;11.28;;;;;;;17.36;75.12;98241.22;2211891;81;20976;-78
2021/08/01 04:46:55;;;;;;;12.85;10.10;;;;;;;17.86;74.65;98239.53;2212013;81;20951;-78
2021/08/01 04:49:55;;;;;;;11.63;10.45;;;;;;;18.32;73.58;98245.30;2211907;81;20936;-79
2021/08/01 04:52:56;;;;;;;18.55;11.43;;;;;;;18.70;72.84;98244.66;2211639;81;20948;-78
2021/08/01 04:55:56;;;;;;;13.83;11.50;;;;;;;19.04;71.78;98242.70;2211313;81;21379;-80
2021/08/01 04:58:57;;;;;;;15.40;11.97;;;;;;;19.36;70.98;98239.50;2211607;81;20976;-79
2021/08/01 05:01:57;;;;;;;15.70;12.20;;;;;;;19.54;70.19;98238.92;2211467;81;20929;-78
2021/08/01 05:04:58;;;;;;;19.92;12.15;;;;;;;19.70;69.81;98237.94;2211230;81;20960;-78
2021/08/01 05:07:58;;;;;;;17.17;11.88;;;;;;;19.87;69.37;98232.92;2211474;81;20921;-79
2021/08/01 05:10:59;;;;;;;15.95;10.82;;;;;;;19.96;68.72;98233.09;2211464;81;20913;-80
2021/08/01 05:13:59;;;;;;;14.33;11.43;;;;;;;19.94;68.46;98234.47;2211546;81;21328;-79
2021/08/01 05:17:00;;;;;;;17.67;11.60;;;;;;;19.79;68.13;98238.08;2211366;81;20924;-78
2021/08/01 05:20:00;;;;;;;18.55;12.20;;;;;;;19.63;68.48;98236.42;2211309;81;20977;-80
2021/08/01 05:23:01;;;;;;;16.20;11.15;;;;;;;19.49;68.65;98238.17;2211215;81;20936;-79
2021/08/01 05:26:01;;;;;;;12.25;10.98;;;;;;;19.37;69.06;98238.58;2210875;81;21072;-78
2021/08/01 05:29:02;;;;;;;11.55;10.35;;;;;;;19.34;69.32;98234.72;2211293;81;21285;-79
2021/08/01 05:32:02;;;;;;;13.25;10.40;;;;;;;19.36;69.70;98230.23;2211315;81;20930;-78
2021/08/01 05:35:03;;;;;;;13.23;10.07;;;;;;;19.46;69.96;98228.15;2211268;81;20944;-79
2021/08/01 05:38:03;;;;;;;18.20;10.00;;;;;;;19.59;69.69;98232.14;2211389;81;20960;-79
2021/08/01 05:41:04;;;;;;;14.80;10.65;;;;;;;19.67;69.76;98220.38;2211174;80;20960;-78
2021/08/01 05:44:04;;;;;;;14.43;9.63;;;;;;;19.76;68.65;98220.97;2211186;81;20948;-80
2021/08/01 05:47:07;;;;;;;13.75;9.43;;;;;;;19.88;68.90;98224.52;2211329;80;20944;-79
2021/08/01 05:50:09;;;;;;;15.05;10.38;;;;;;;20.00;67.88;98243.98;2211148;81;20976;-78
2021/08/01 05:53:09;;;;;;;12.03;10.13;;;;;;;20.04;67.39;98247.78;2211389;81;20972;-78
2021/08/01 05:56:10;;;;;;;11.95;9.88;;;;;;;20.19;67.30;98244.18;2211390;81;21356;-79
2021/08/01 05:59:10;;;;;;;11.48;10.28;;;;;;;20.35;66.94;98246.67;2211411;80;20929;-79
2021/08/01 06:02:10;;;;;;;10.35;9.38;;;;;;;20.50;66.49;98253.22;2211580;81;20897;-80
2021/08/01 06:05:11;;;;;;;14.83;10.60;;;;;;;20.64;65.95;98249.59;2211555;80;20905;-79
2021/08/01 06:08:11;;;;;;;11.60;10.28;;;;;;;20.72;65.07;98258.58;2211612;81;20960;-81
2021/08/01 06:11:12;;;;;;;15.15;10.28;;;;;;;20.84;64.64;98252.38;2211472;81;20885;-77
2021/08/01 06:14:12;;;;;;;11.80;9.63;;;;;;;21.00;64.22;98252.64;2211874;81;20964;-78
2021/08/01 06:17:13;;;;;;;13.43;10.03;;;;;;;21.19;63.57;98257.61;2211166;81;21039;-78
2021/08/01 06:20:14;;;;;;;14.70;9.75;;;;;;;21.32;63.69;98246.53;2211519;81;20925;-79
2021/08/01 06:23:14;;;;;;;14.85;10.80;;;;;;;21.52;63.19;98250.09;2211276;81;20960;-79
2021/08/01 06:26:15;;;;;;;13.53;10.10;;;;;;;21.57;62.58;98243.27;2211369;81;20991;-78
2021/08/01 06:29:16;;;;;;;13.75;11.75;;;;;;;21.49;62.87;98242.72;2211461;81;20904;-78
2021/08/01 06:32:17;;;;;;;17.75;14.13;;;;;;;21.39;62.89;98243.56;2211465;81;21556;-78
2021/08/01 06:35:17;;;;;;;12.90;10.85;;;;;;;21.29;63.16;98256.81;2211349;81;20929;-78
2021/08/01 06:38:18;;;;;;;23.20;12.95;;;;;;;21.26;63.19;98250.30;2211342;81;21373;-78
2021/08/01 06:41:18;;;;;;;17.25;13.05;;;;;;;21.30;63.48;98243.48;2211393;80;20952;-78
2021/08/01 06:44:19;;;;;;;22.25;13.68;;;;;;;21.34;63.83;98246.88;2211300;81;20920;-79
2021/08/01 06:47:19;;;;;;;17.92;13.30;;;;;;;21.41;63.48;98244.36;2211907;81;20885;-79
2021/08/01 06:50:20;;;;;;;16.35;11.30;;;;;;;21.66;63.48;98244.67;2211312;81;21013;-78
2021/08/01 06:53:21;;;;;;;28.67;15.13;;;;;;;21.90;62.90;98237.88;2211352;81;20881;-77
2021/08/01 06:56:21;;;;;;;18.85;12.70;;;;;;;22.05;62.85;98230.19;2211197;81;21379;-78
2021/08/01 06:59:22;;;;;;;19.57;11.20;;;;;;;22.08;62.64;98227.40;2211538;81;21328;-78
2021/08/01 07:02:22;;;;;;;11.43;10.32;;;;;;;21.98;62.57;98222.06;2211000;81;20897;-78
2021/08/01 07:05:23;;;;;;;16.82;11.38;;;;;;;21.85;62.75;98225.72;2211219;81;21407;-78
2021/08/01 07:08:23;;;;;;;11.35;10.23;;;;;;;21.75;63.01;98235.02;2211406;81;21319;-79
2021/08/01 07:11:24;;;;;;;10.15;9.25;;;;;;;21.64;62.94;98236.77;2211555;81;20936;-79
2021/08/01 07:14:24;;;;;;;10.25;9.30;;;;;;;21.52;63.01;98235.48;2211446;80;20913;-78
2021/08/01 07:17:25;;;;;;;15.00;9.20;;;;;;;21.43;63.42;98235.01;2211288;81;20925;-78
2021/08/01 07:20:25;;;;;;;13.68;11.28;;;;;;;21.33;63.86;98231.00;2211374;80;20894;-79
2021/08/01 07:23:27;;;;;;;13.53;11.88;;;;;;;21.33;63.86;98231.00;2211531;81;21327;-80
2021/08/01 07:26:27;;;;;;;12.35;9.25;;;;;;;21.40;63.82;98244.42;2211390;81;21024;-80
2021/08/01 07:29:28;;;;;;;11.78;10.25;;;;;;;21.48;63.61;98245.84;2211517;80;20921;-79
2021/08/01 07:32:28;;;;;;;11.33;9.23;;;;;;;21.58;63.29;98242.34;2211577;81;20920;-78
2021/08/01 07:35:29;;;;;;;10.15;9.28;;;;;;;21.64;63.31;98236.77;2211375;80;20933;-79
2021/08/01 07:38:30;;;;;;;11.78;9.50;;;;;;;21.76;63.47;98228.77;2211351;81;20925;-78
2021/08/01 07:41:30;;;;;;;11.22;9.48;;;;;;;21.84;63.39;98222.66;2213467;80;20964;-78
2021/08/01 07:44:35;;;;;;;12.30;9.75;;;;;;;21.91;63.59;98214.83;2221863;80;20948;-78
2021/08/01 07:47:36;;;;;;;10.55;9.50;;;;;;;21.93;63.49;98208.98;2221087;80;21339;-78
2021/08/01 07:50:36;;;;;;;16.15;10.10;;;;;;;21.89;63.54;98206.05;2222116;80;20955;-78
2021/08/01 07:53:37;;;;;;;15.03;9.98;;;;;;;21.83;63.95;98196.56;2221764;80;20956;-80
2021/08/01 07:56:37;;;;;;;13.70;9.98;;;;;;;21.73;63.91;98195.23;2221640;80;20979;-78
2021/08/01 07:59:38;;;;;;;10.65;9.60;;;;;;;21.67;64.04;98197.26;2221628;80;20924;-78
2021/08/01 08:02:38;;;;;;;12.00;9.38;;;;;;;21.61;64.45;98197.06;2221584;80;20940;-79
2021/08/01 08:05:39;;;;;;;11.40;9.48;;;;;;;21.57;64.47;98192.80;2221715;80;20929;-78
2021/08/01 08:08:39;;;;;;;11.35;9.30;;;;;;;21.55;64.36;98203.95;2221650;80;21277;-78
2021/08/01 08:11:40;;;;;;;11.05;9.58;;;;;;;21.55;64.38;98194.20;2221800;80;21324;-77
2021/08/01 08:14:40;;;;;;;14.95;8.68;;;;;;;21.52;64.55;98190.34;2221627;80;20912;-80
2021/08/01 08:17:41;;;;;;;12.23;8.63;;;;;;;21.52;64.68;98189.02;2221671;80;20948;-79
2021/08/01 08:20:41;;;;;;;38.45;33.33;;;;;;;21.57;64.46;98186.17;2221422;80;20956;-79
2021/08/01 08:23:42;;;;;;;11.70;10.50;;;;;;;21.55;64.02;98184.91;2221777;80;21343;-78
2021/08/01 08:26:43;;;;;;;10.10;8.63;;;;;;;21.56;64.28;98176.47;2221719;80;21410;-79
2021/08/01 08:29:43;;;;;;;11.50;7.30;;;;;;;21.60;63.98;98156.36;2221840;80;21272;-79
2021/08/01 08:32:44;;;;;;;10.05;7.58;;;;;;;21.69;63.49;98154.27;2221719;80;20913;-79
2021/08/01 08:35:44;;;;;;;8.40;7.00;;;;;;;21.90;63.14;98148.00;2221795;80;20912;-79
2021/08/01 08:38:45;;;;;;;13.20;7.28;;;;;;;22.04;62.44;98150.07;2221587;80;20915;-79
2021/08/01 08:41:45;;;;;;;9.35;7.10;;;;;;;22.17;62.46;98141.47;2221865;80;20976;-79
2021/08/01 08:44:46;;;;;;;9.75;7.20;;;;;;;22.41;62.04;98126.64;2221654;80;20952;-79
2021/08/01 08:47:46;;;;;;;8.28;6.62;;;;;;;22.87;61.16;98119.56;2221666;80;20919;-79
2021/08/01 08:50:47;;;;;;;10.80;6.97;;;;;;;23.20;60.19;98121.48;2221644;80;21323;-79
2021/08/01 08:53:48;;;;;;;12.05;7.00;;;;;;;23.34;59.58;98125.63;2221699;80;20928;-79
2021/08/01 08:56:49;;;;;;;13.88;7.33;;;;;;;23.20;59.93;98122.80;2221319;80;21024;-78
2021/08/01 08:59:49;;;;;;;9.93;6.78;;;;;;;23.09;60.12;98130.47;2221599;80;20947;-80
2021/08/01 09:02:50;;;;;;;13.48;7.97;;;;;;;23.00;60.44;98122.94;2221676;80;20948;-78
2021/08/01 09:05:55;;;;;;;8.18;7.28;;;;;;;22.89;60.67;98115.49;2221749;80;20964;-79
2021/08/01 09:08:52;;;;;;;10.05;7.40;;;;;;;22.84;60.77;98117.05;2220858;80;20959;-78
2021/08/01 09:11:53;;;;;;;112.30;100.27;;;;;;;22.70;61.05;98116.83;2221649;80;20921;-79
2021/08/01 09:14:53;;;;;;;15.50;10.40;;;;;;;22.56;61.52;98112.17;2221769;80;20919;-78
2021/08/01 09:17:54;;;;;;;9.80;8.35;;;;;;;22.41;61.74;98112.88;2221647;80;20961;-78
2021/08/01 09:20:55;;;;;;;10.53;7.75;;;;;;;22.38;62.01;98103.71;2221758;80;21153;-79
2021/08/01 09:23:55;;;;;;;8.63;7.50;;;;;;;22.41;62.39;98092.06;2221583;80;20960;-79
2021/08/01 09:26:58;;;;;;;11.40;8.10;;;;;;;22.42;62.49;98095.98;2221292;80;20983;-77
2021/08/01 09:29:58;;;;;;;9.68;7.60;;;;;;;22.44;62.50;98097.24;2221438;80;20913;-79
2021/08/01 09:32:58;;;;;;;8.80;7.90;;;;;;;22.45;62.73;98091.84;2221734;80;20951;-78
2021/08/01 09:35:59;;;;;;;9.15;8.20;;;;;;;22.42;62.59;98088.47;2221800;80;20916;-79
2021/08/01 09:38:59;;;;;;;9.33;7.95;;;;;;;22.43;62.78;98082.22;2221899;80;20945;-78
2021/08/01 09:42:00;;;;;;;10.40;7.80;;;;;;;22.48;62.65;98088.18;2221711;80;20976;-79
2021/08/01 09:45:01;;;;;;;9.38;8.20;;;;;;;22.53;62.65;98083.50;2221829;80;21343;-78
2021/08/01 09:48:01;;;;;;;11.80;7.90;;;;;;;22.62;62.67;98080.90;2221831;80;20959;-78
2021/08/01 09:51:02;;;;;;;18.87;8.80;;;;;;;22.71;62.60;98083.97;2221943;80;20916;-78
2021/08/01 09:54:02;;;;;;;13.60;8.43;;;;;;;22.83;62.94;98083.86;2221803;80;20924;-78
2021/08/01 09:57:06;;;;;;;9.15;7.87;;;;;;;22.93;63.41;98081.61;2221751;80;20979;-78
2021/08/01 10:00:06;;;;;;;10.85;7.50;;;;;;;22.97;63.95;98088.03;2221886;80;20917;-78
2021/08/01 10:03:06;;;;;;;11.60;8.88;;;;;;;23.02;63.61;98086.47;2221828;80;21319;-79
2021/08/01 10:06:07;;;;;;;10.63;8.28;;;;;;;23.12;64.17;98084.59;2221854;80;20928;-79
2021/08/01 10:09:07;;;;;;;9.98;8.45;;;;;;;23.19;64.51;98079.81;2221885;80;20908;-78
2021/08/01 10:12:08;;;;;;;13.80;8.95;;;;;;;23.22;64.49;98078.33;2221896;80;20897;-77
2021/08/01 10:15:09;;;;;;;12.35;10.58;;;;;;;23.15;65.16;98074.27;2221872;80;20962;-79
2021/08/01 10:18:09;;;;;;;11.38;8.73;;;;;;;23.07;65.77;98081.30;2222061;80;21280;-80
2021/08/01 10:21:10;;;;;;;10.05;8.85;;;;;;;22.94;66.82;98088.65;2222061;80;21331;-79
2021/08/01 10:24:10;;;;;;;10.90;9.80;;;;;;;22.66;66.79;98098.43;2221982;80;21055;-80
2021/08/01 10:27:11;;;;;;;19.98;12.98;;;;;;;22.49;67.20;98089.91;2221671;80;21015;-79
2021/08/01 10:30:11;;;;;;;14.38;12.40;;;;;;;22.47;66.98;98067.84;2221730;80;20963;-80
2021/08/01 10:33:12;;;;;;;16.82;11.97;;;;;;;22.58;67.93;98055.38;2221914;80;21369;-79
2021/08/01 10:36:12;;;;;;;16.97;10.72;;;;;;;22.81;67.97;98029.86;2221891;80;20949;-78
2021/08/01 10:39:13;;;;;;;13.90;10.60;;;;;;;23.13;67.43;98018.91;2221954;80;20916;-79
2021/08/01 10:42:14;;;;;;;12.65;9.50;;;;;;;23.44;66.84;98011.06;2222023;80;20951;-79
2021/08/01 10:45:17;;;;;;;11.93;9.83;;;;;;;23.70;67.05;97995.04;2221817;80;20912;-80
2021/08/01 10:48:16;;;;;;;11.35;10.15;;;;;;;23.84;66.20;97987.62;2221567;80;20931;-79
2021/08/01 10:51:17;;;;;;;10.38;9.30;;;;;;;23.90;66.00;97981.95;2221921;80;20920;-79
2021/08/01 10:54:18;;;;;;;10.48;9.38;;;;;;;23.87;65.66;97971.45;2221886;80;20933;-80
2021/08/01 10:57:19;;;;;;;12.70;8.98;;;;;;;23.78;65.71;97967.50;2221459;80;20990;-78
2021/08/01 11:00:19;;;;;;;10.08;8.65;;;;;;;23.91;65.80;97958.83;2221830;80;21378;-79
2021/08/01 11:03:20;;;;;;;8.45;7.58;;;;;;;24.06;64.86;97960.16;2221915;80;21375;-79
2021/08/01 11:06:20;;;;;;;10.45;9.08;;;;;;;24.29;64.05;97960.72;2221987;80;20916;-79
2021/08/01 11:09:21;;;;;;;8.93;7.58;;;;;;;24.40;62.65;97963.63;2221933;80;20924;-80
2021/08/01 11:12:21;;;;;;;14.43;9.78;;;;;;;24.44;61.63;97958.49;2221888;80;20884;-80
2021/08/01 11:15:22;;;;;;;9.78;8.10;;;;;;;24.54;60.07;97963.67;2221832;80;20933;-79
2021/08/01 11:18:22;;;;;;;8.23;7.20;;;;;;;24.98;59.53;97964.22;2221940;80;20924;-79
2021/08/01 11:21:23;;;;;;;10.50;7.22;;;;;;;25.76;59.10;97974.14;2221904;80;20963;-79
2021/08/01 11:24:23;;;;;;;8.85;7.25;;;;;;;26.41;57.92;97971.27;2222071;80;21349;-78
2021/08/01 11:27:24;;;;;;;8.70;6.78;;;;;;;26.72;55.94;97975.92;2221889;80;20971;-80
2021/08/01 11:30:24;;;;;;;10.03;7.33;;;;;;;26.68;53.64;97966.37;2222181;80;20881;-80
2021/08/01 11:33:25;;;;;;;7.37;6.67;;;;;;;26.81;54.35;97968.61;2221724;80;20952;-80
2021/08/01 11:36:25;;;;;;;8.70;6.62;;;;;;;26.90;53.05;97966.67;2222056;80;20889;-80
2021/08/01 11:39:26;;;;;;;8.60;6.90;;;;;;;26.77;52.33;97969.30;2222064;80;20935;-79
2021/08/01 11:42:28;;;;;;;7.87;7.00;;;;;;;26.84;54.14;97972.41;2222010;80;20949;-80
2021/08/01 11:45:29;;;;;;;7.53;6.83;;;;;;;27.00;53.39;97976.31;2222379;80;20933;-81
2021/08/01 11:48:29;;;;;;;7.62;6.78;;;;;;;27.04;52.36;97971.13;2222073;80;20921;-80
2021/08/01 11:51:30;;;;;;;7.60;6.40;;;;;;;27.08;53.22;97972.63;2222056;80;20928;-80
2021/08/01 11:54:30;;;;;;;8.50;7.10;;;;;;;27.25;52.91;97975.85;2222200;80;20956;-82
2021/08/01 11:57:31;;;;;;;15.38;13.40;;;;;;;27.26;52.89;97976.23;2221699;80;20972;-80
2021/08/01 12:00:31;;;;;;;10.78;7.65;;;;;;;27.27;52.79;97981.10;2221914;80;20889;-80
2021/08/01 12:03:32;;;;;;;8.43;6.62;;;;;;;27.11;52.83;97972.41;2221914;80;20944;-80
2021/08/01 12:06:32;;;;;;;8.43;7.62;;;;;;;27.12;52.98;97959.39;2222058;80;20951;-79
2021/08/01 12:09:33;;;;;;;9.43;6.83;;;;;;;27.31;52.84;97961.17;2222034;80;21312;-80
2021/08/01 12:12:33;;;;;;;7.78;6.60;;;;;;;27.39;52.41;97959.30;2222109;80;21316;-80
2021/08/01 12:15:33;;;;;;;10.18;6.70;;;;;;;27.31;52.01;97958.97;2221864;80;20984;-79
2021/08/01 12:18:34;;;;;;;9.75;6.95;;;;;;;27.21;52.36;97955.59;2222052;80;20913;-79
2021/08/01 12:21:38;;;;;;;7.53;6.83;;;;;;;27.22;52.64;97939.04;2221961;80;20932;-80
2021/08/01 12:24:39;;;;;;;8.07;7.23;;;;;;;27.24;52.55;97934.44;2221715;80;20963;-79
2021/08/01 12:27:39;;;;;;;7.72;7.03;;;;;;;27.18;52.61;97938.40;2221488;80;21032;-79
2021/08/01 12:30:39;;;;;;;8.58;7.08;;;;;;;27.02;51.93;97932.88;2221958;80;20916;-80
2021/08/01 12:33:40;;;;;;;10.80;7.45;;;;;;;26.85;52.30;97916.56;2221908;80;20912;-79
2021/08/01 12:36:40;;;;;;;7.25;6.55;;;;;;;26.96;52.34;97919.39;2221930;80;20956;-80
2021/08/01 12:39:41;;;;;;;12.50;6.50;;;;;;;27.12;52.22;97895.11;2221829;80;21284;-80
2021/08/01 12:42:42;;;;;;;7.60;6.90;;;;;;;27.36;51.10;97903.23;2219133;80;21029;-81
2021/08/01 12:45:42;;;;;;;8.75;6.50;;;;;;;27.38;51.37;97903.98;2211652;80;20921;-79
2021/08/01 12:48:43;;;;;;;12.23;10.68;;;;;;;27.45;50.69;97917.32;2211693;80;20913;-79
2021/08/01 12:51:44;;;;;;;8.45;7.50;;;;;;;27.39;51.04;97929.81;2211238;81;20968;-80
2021/08/01 12:54:44;;;;;;;8.58;6.55;;;;;;;27.49;50.79;97929.54;2211600;81;20936;-79
2021/08/01 12:57:45;;;;;;;7.50;5.92;;;;;;;27.69;49.90;97918.76;2211344;80;21023;-79
2021/08/01 13:00:45;;;;;;;7.25;6.25;;;;;;;27.76;49.60;97922.26;2211968;80;20920;-80
2021/08/01 13:03:45;;;;;;;8.03;6.67;;;;;;;27.76;49.40;97925.42;2211389;80;20948;-79
2021/08/01 13:06:49;;;;;;;7.78;6.17;;;;;;;27.85;49.26;97917.56;2211540;81;20917;-79
2021/08/01 13:09:49;;;;;;;9.55;6.75;;;;;;;27.86;51.15;97900.52;2211661;80;21028;-79
2021/08/01 13:12:50;;;;;;;10.05;7.47;;;;;;;27.77;51.21;97911.05;2211497;80;21304;-79
2021/08/01 13:15:50;;;;;;;10.95;6.87;;;;;;;27.65;52.54;97926.16;2211685;80;20897;-79
2021/08/01 13:18:51;;;;;;;6.92;6.30;;;;;;;27.60;53.36;97924.27;2211625;80;20913;-80
2021/08/01 13:21:51;;;;;;;7.60;6.90;;;;;;;27.49;53.31;97915.66;2211639;80;20960;-78
2021/08/01 13:24:52;;;;;;;9.98;7.25;;;;;;;27.33;54.50;97935.61;2211669;80;20921;-78
2021/08/01 13:27:52;;;;;;;7.97;7.20;;;;;;;27.22;55.46;97931.86;2211189;81;20956;-79
2021/08/01 13:30:52;;;;;;;8.68;7.87;;;;;;;27.19;56.24;97925.38;2211516;80;21295;-79
2021/08/01 13:33:53;;;;;;;8.93;8.00;;;;;;;27.09;55.79;97926.98;2211587;80;20909;-80
2021/08/01 13:36:54;;;;;;;10.65;7.85;;;;;;;27.04;56.38;97925.11;2211539;80;20928;-78
2021/08/01 13:39:54;;;;;;;10.38;7.50;;;;;;;27.00;56.24;97925.42;2211337;81;20961;-79
2021/08/01 13:42:55;;;;;;;10.68;7.65;;;;;;;27.06;56.62;97919.16;2211292;80;20957;-78
2021/08/01 13:45:55;;;;;;;11.35;9.65;;;;;;;27.18;55.53;97904.91;2211383;80;20920;-79
2021/08/01 13:48:56;;;;;;;8.08;7.37;;;;;;;27.24;55.30;97909.84;2211386;81;20877;-79
2021/08/01 13:51:56;;;;;;;9.15;7.15;;;;;;;27.15;55.23;97905.61;2211497;80;21303;-78
2021/08/01 13:54:57;;;;;;;9.60;7.72;;;;;;;27.02;55.27;97906.09;2211946;80;20981;-79
2021/08/01 13:57:57;;;;;;;11.83;7.62;;;;;;;26.82;55.56;97898.03;2211554;81;20979;-80